Time;durP1;ratioP1;P1;durP2;ratioP2;P2;SDS_P1;SDS_P2;PMS_P1;PMS_P2;Temp;Humidity;BMP_temperature;BMP_pressure;BME280_temperature;BME280_humidity;BME280_pressure;Samples;Min_cycle;Max_cycle;Signal;HPM_P1;HPM_P2
2023/08/22 00:02:39;;;;;;;7.53;6.60;;;;;;;28.03;56.50;99043.50;6950531;28;20244;-83
2023/08/22 00:06:01;;;;;;;8.27;7.37;;;;;;;27.99;56.59;99043.31;6950593;28;20191;-83
2023/08/22 00:09:24;;;;;;;8.30;6.80;;;;;;;27.98;57.17;99046.41;6949944;28;20231;-84
2023/08/22 00:12:48;;;;;;;7.63;6.93;;;;;;;28.03;56.09;99036.03;6948485;28;20225;-84
2023/08/22 00:16:12;;;;;;;8.40;7.53;;;;;;;27.91;56.50;99049.63;6946934;28;20213;-84
2023/08/22 00:19:34;;;;;;;8.83;7.27;;;;;;;27.36;56.33;98934.44;6947278;28;20339;-83
2023/08/22 00:23:03;;;;;;;9.30;7.47;;;;;;;27.89;56.50;99038.00;6947422;28;20297;-84
2023/08/22 00:26:25;;;;;;;9.40;7.20;;;;;;;28.01;56.17;99041.03;6928403;28;20214;-83
2023/08/22 00:29:47;;;;;;;8.40;7.60;;;;;;;27.97;56.64;99040.06;6949130;28;20318;-86
2023/08/22 00:33:13;;;;;;;8.70;7.07;;;;;;;27.97;55.97;99033.69;6948091;28;20313;-83
2023/08/22 00:36:35;;;;;;;9.47;7.20;;;;;;;27.65;56.71;99023.53;6947828;28;20201;-83
2023/08/22 00:39:57;;;;;;;8.23;7.43;;;;;;;27.66;56.72;99032.69;6947872;28;20211;-84
2023/08/22 00:43:18;;;;;;;8.63;7.83;;;;;;;27.05;58.47;99037.78;6947109;28;20314;-83
2023/08/22 00:47:07;;;;;;;10.30;7.60;;;;;;;26.59;59.86;99017.59;6947477;28;20702;-84
2023/08/22 00:50:32;;;;;;;9.00;8.10;;;;;;;26.64;59.58;99001.75;6947510;28;20781;-83
2023/08/22 00:53:53;;;;;;;10.67;7.37;;;;;;;26.39;59.91;98963.47;6948017;28;20590;-83
2023/08/22 00:57:16;;;;;;;8.07;7.37;;;;;;;26.78;59.88;99024.72;6946597;28;20212;-83
2023/08/22 01:00:40;;;;;;;7.67;6.90;;;;;;;27.15;58.91;99032.06;6948288;28;20205;-83
2023/08/22 01:04:02;;;;;;;8.13;7.23;;;;;;;27.39;58.17;99028.00;6947780;28;20251;-83
2023/08/22 01:07:40;;;;;;;8.77;7.03;;;;;;;26.97;58.17;98978.44;6947627;28;20234;-82
2023/08/22 01:11:06;;;;;;;7.30;6.60;;;;;;;27.40;57.47;99013.03;6947817;28;20394;-86
2023/08/22 01:14:31;;;;;;;11.07;7.47;;;;;;;27.34;57.20;98997.63;6947184;28;20254;-83
2023/08/22 01:18:01;;;;;;;10.37;7.30;;;;;;;27.17;57.95;99027.06;6946919;28;20211;-83
2023/08/22 01:25:00;;;;;;;8.87;7.00;;;;;;;27.25;57.66;99016.09;6940748;28;20219;-83
2023/08/22 01:32:07;;;;;;;8.97;7.97;;;;;;;27.02;56.88;98947.88;6940841;28;20217;-83
2023/08/22 01:35:31;;;;;;;11.43;8.17;;;;;;;27.05;58.62;99008.16;6948382;28;20789;-82
2023/08/22 01:39:12;;;;;;;9.00;7.27;;;;;;;27.03;58.51;98988.28;6944324;28;20743;-83
2023/08/22 01:42:36;;;;;;;9.63;6.90;;;;;;;27.36;57.21;98997.34;6930484;28;20685;-83
2023/08/22 01:45:57;;;;;;;7.97;7.17;;;;;;;27.13;57.88;99015.75;6948103;28;20277;-84
2023/08/22 01:49:19;;;;;;;7.70;7.00;;;;;;;27.28;57.21;99006.34;6949230;28;20680;-83
2023/08/22 01:52:42;;;;;;;11.67;7.60;;;;;;;27.15;57.42;99010.75;6949227;28;20700;-83
2023/08/22 01:56:04;;;;;;;9.87;7.23;;;;;;;26.80;58.20;99016.13;6948362;28;20199;-84
2023/08/22 01:59:27;;;;;;;10.13;7.43;;;;;;;26.55;57.85;98939.94;6949119;28;20273;-84
2023/08/22 02:02:49;;;;;;;10.37;8.37;;;;;;;26.29;59.24;98949.81;6949528;28;20323;-83
2023/08/22 02:06:10;;;;;;;8.90;7.20;;;;;;;26.92;58.04;99006.22;6949497;28;20207;-83
2023/08/22 02:09:32;;;;;;;9.00;8.10;;;;;;;26.50;59.31;99013.88;6950305;28;20236;-83
2023/08/22 02:12:53;;;;;;;10.43;8.07;;;;;;;26.47;60.27;99008.94;6951047;28;20254;-83
2023/08/22 02:16:16;;;;;;;9.03;7.47;;;;;;;26.71;59.56;98995.84;6950126;28;20212;-83
2023/08/22 02:19:38;;;;;;;8.73;7.27;;;;;;;26.92;58.90;99008.97;6946703;28;20320;-83
2023/08/22 02:23:01;;;;;;;9.97;7.57;;;;;;;27.08;57.76;99006.75;6956889;28;20236;-84
2023/08/22 02:26:26;;;;;;;8.47;7.33;;;;;;;26.49;58.40;98946.66;6944667;28;20264;-83
2023/08/22 02:29:48;;;;;;;8.30;7.50;;;;;;;27.00;57.75;99002.72;6943231;28;20231;-83
2023/08/22 02:33:12;;;;;;;8.17;7.47;;;;;;;25.86;59.36;98917.91;6943859;28;20223;-84
2023/08/22 02:36:34;;;;;;;11.40;7.90;;;;;;;26.37;60.13;99001.66;6942911;28;20613;-84
2023/08/22 02:39:55;;;;;;;8.67;7.63;;;;;;;26.68;59.42;98991.75;6943286;28;20288;-84
2023/08/22 02:43:17;;;;;;;7.97;7.03;;;;;;;26.66;59.33;99007.81;6962779;23;20231;-83
2023/08/22 02:46:40;;;;;;;8.63;7.60;;;;;;;26.38;59.45;98980.34;6970514;28;20740;-84
2023/08/22 02:50:04;;;;;;;9.20;8.17;;;;;;;26.43;59.29;98985.81;6970233;28;20222;-84
2023/08/22 02:53:26;;;;;;;8.10;7.27;;;;;;;26.46;60.19;99016.44;6969689;28;20225;-85
2023/08/22 03:00:23;;;;;;;9.20;8.30;;;;;;;26.61;59.51;99010.66;6968846;28;20568;-85
2023/08/22 03:04:00;;;;;;;11.30;7.90;;;;;;;26.40;59.32;98986.41;6968586;28;20627;-86
2023/08/22 03:07:23;;;;;;;9.73;7.10;;;;;;;26.92;58.34;99013.69;6968422;28;20240;-86
2023/08/22 03:10:44;;;;;;;8.40;7.60;;;;;;;26.55;59.25;99022.94;6969505;28;20327;-86
2023/08/22 03:14:16;;;;;;;9.93;8.57;;;;;;;25.99;59.24;98953.09;6968482;28;20312;-86
2023/08/22 03:17:37;;;;;;;9.33;8.43;;;;;;;26.48;59.94;99014.19;6967643;28;20236;-86
2023/08/22 03:21:08;;;;;;;8.13;7.43;;;;;;;26.57;59.47;99008.81;6968867;28;20296;-86
2023/08/22 03:24:31;;;;;;;8.40;6.37;;;;;;;26.48;59.04;98991.25;6969096;28;20233;-86
2023/08/22 03:27:53;;;;;;;8.57;7.17;;;;;;;26.56;58.71;98998.88;6968028;28;20210;-85
2023/08/22 03:31:15;;;;;;;9.27;8.27;;;;;;;25.92;61.18;98996.03;6968781;28;20315;-86
2023/08/22 03:34:36;;;;;;;9.50;7.80;;;;;;;26.30;60.09;99003.97;6968836;28;20226;-86
2023/08/22 03:37:59;;;;;;;9.87;8.10;;;;;;;25.91;60.23;98945.50;6973002;28;20285;-85
2023/08/22 03:41:30;;;;;;;9.00;7.67;;;;;;;26.23;59.98;99005.47;6948063;28;20206;-86
2023/08/22 03:44:52;;;;;;;9.73;8.47;;;;;;;26.21;60.04;99000.28;6967559;28;20312;-83
2023/08/22 03:48:14;;;;;;;10.17;9.13;;;;;;;25.37;62.82;98975.53;6967668;28;20207;-86
2023/08/22 03:51:46;;;;;;;9.60;8.63;;;;;;;25.61;62.22;98962.47;6968447;28;20584;-86
2023/08/22 03:55:09;;;;;;;8.67;7.77;;;;;;;26.07;60.89;98977.28;6968003;28;20289;-86
2023/08/22 04:02:08;;;;;;;8.17;7.40;;;;;;;26.36;59.21;99004.75;6967742;28;20703;-86
2023/08/22 04:05:31;;;;;;;10.77;8.97;;;;;;;25.26;61.35;98940.09;6973362;28;20201;-86
2023/08/22 04:08:52;;;;;;;10.20;8.57;;;;;;;26.06;60.89;99005.19;6972481;28;20230;-86
2023/08/22 04:12:14;;;;;;;8.67;7.13;;;;;;;26.32;59.12;98984.34;6973068;28;20304;-86
2023/08/22 04:15:45;;;;;;;9.03;8.23;;;;;;;25.67;59.87;98938.38;6972911;28;20681;-86
2023/08/22 04:19:06;;;;;;;11.63;8.30;;;;;;;26.32;59.19;99011.97;6973145;28;20210;-86
2023/08/22 04:22:40;;;;;;;9.03;8.23;;;;;;;25.69;59.78;98956.31;6970408;28;20230;-85
2023/08/22 04:26:01;;;;;;;9.27;8.47;;;;;;;25.68;60.16;98976.75;6972543;28;20336;-86
2023/08/22 04:29:23;;;;;;;8.30;7.50;;;;;;;25.88;59.47;98962.63;6972373;28;20222;-86
2023/08/22 04:32:46;;;;;;;10.73;8.23;;;;;;;26.33;59.30;99024.69;6975183;28;20245;-87
2023/08/22 04:36:08;;;;;;;10.00;8.17;;;;;;;26.20;59.47;99029.03;6976787;28;20202;-86
2023/08/22 04:39:30;;;;;;;8.33;7.53;;;;;;;26.01;58.90;98970.19;6972870;28;20206;-86
2023/08/22 04:42:51;;;;;;;11.47;8.37;;;;;;;25.84;60.14;99024.31;6972546;28;20242;-86
2023/08/22 04:46:17;;;;;;;9.30;8.40;;;;;;;25.45;60.97;98972.13;6971753;28;20586;-86
2023/08/22 04:49:40;;;;;;;9.80;8.90;;;;;;;25.58;62.04;99034.06;6972101;28;20245;-86
2023/08/22 04:53:07;;;;;;;9.73;8.73;;;;;;;25.70;61.54;99029.75;6971801;28;20222;-84
2023/08/22 04:56:29;;;;;;;9.23;8.33;;;;;;;26.24;60.03;99037.56;6970786;28;20213;-85
2023/08/22 04:59:52;;;;;;;9.17;7.87;;;;;;;26.22;59.09;99009.38;6972410;28;20991;-79
2023/08/22 05:03:14;;;;;;;9.07;8.17;;;;;;;26.19;59.11;99049.50;6970989;28;20592;-82
2023/08/22 05:06:37;;;;;;;9.67;8.07;;;;;;;26.18;59.75;99045.09;6971774;28;20201;-82
2023/08/22 05:09:59;;;;;;;8.73;7.93;;;;;;;26.03;60.60;99050.03;6973549;28;20372;-87
2023/08/22 05:13:20;;;;;;;9.83;8.23;;;;;;;26.32;59.94;99057.03;6972303;28;20693;-82
2023/08/22 05:16:42;;;;;;;9.03;8.20;;;;;;;26.31;59.44;99060.91;6971083;28;20222;-84
2023/08/22 05:20:06;;;;;;;11.50;8.53;;;;;;;26.27;59.69;99062.66;6977183;28;20331;-85
2023/08/22 05:23:29;;;;;;;8.60;7.03;;;;;;;26.02;57.67;98973.78;6972678;28;20318;-88
2023/08/22 05:26:51;;;;;;;10.33;7.53;;;;;;;26.45;58.06;99061.81;6991868;28;20227;-84
2023/08/22 05:30:21;;;;;;;9.07;7.43;;;;;;;26.46;58.01;99055.16;6981470;28;20367;-85
2023/08/22 05:33:44;;;;;;;8.83;7.20;;;;;;;26.71;57.71;99051.97;6970571;28;20312;-86
2023/08/22 05:37:05;;;;;;;8.00;7.20;;;;;;;26.53;57.41;98989.19;6970040;28;20241;-84
2023/08/22 05:40:29;;;;;;;9.27;8.00;;;;;;;26.13;57.76;98951.19;6968502;28;20275;-85
2023/08/22 05:43:51;;;;;;;8.10;7.27;;;;;;;27.42;57.48;99059.81;6969091;28;20272;-84
2023/08/22 05:47:12;;;;;;;9.37;7.90;;;;;;;27.49;55.37;98977.09;6981742;28;20228;-83
2023/08/22 05:50:34;;;;;;;9.60;8.03;;;;;;;28.13;54.80;99055.19;6971061;28;20219;-85
2023/08/22 05:53:56;;;;;;;8.70;7.80;;;;;;;27.80;55.31;98990.00;6971305;28;20234;-83
2023/08/22 05:57:19;;;;;;;7.93;7.27;;;;;;;28.54;54.98;99052.31;6969447;28;20234;-87
2023/08/22 06:00:41;;;;;;;8.67;7.67;;;;;;;28.78;53.01;99033.34;6974660;28;20738;-85
2023/08/22 06:04:03;;;;;;;7.87;7.07;;;;;;;28.82;54.41;99060.16;6975711;28;20222;-84
2023/08/22 06:07:25;;;;;;;8.73;7.50;;;;;;;28.14;54.30;98995.81;6975197;28;20692;-84
2023/08/22 06:10:47;;;;;;;10.03;8.73;;;;;;;28.89;54.18;99059.72;6970223;28;20228;-85
2023/08/22 06:14:10;;;;;;;8.50;7.50;;;;;;;28.90;54.24;99048.25;6970079;28;20228;-84
2023/08/22 06:17:32;;;;;;;8.43;7.60;;;;;;;29.88;51.36;99046.88;6969628;28;20209;-88
2023/08/22 06:20:58;;;;;;;11.67;7.57;;;;;;;29.91;50.46;99004.53;6970116;28;20204;-85
2023/08/22 06:24:20;;;;;;;8.57;7.07;;;;;;;30.65;48.92;99045.00;6968628;28;20229;-85
2023/08/22 06:27:42;;;;;;;10.57;7.20;;;;;;;30.28;48.31;98978.88;6969481;28;20712;-85
2023/08/22 06:31:05;;;;;;;8.80;6.80;;;;;;;30.47;48.03;98948.72;6970951;28;20655;-83
2023/08/22 06:34:27;;;;;;;7.87;6.83;;;;;;;30.44;48.23;98972.47;6944945;28;20227;-84
2023/08/22 06:37:50;;;;;;;7.53;6.90;;;;;;;30.58;49.05;98952.78;6970894;28;20204;-82
2023/08/22 06:41:12;;;;;;;9.10;7.77;;;;;;;31.54;48.39;99042.94;6968292;28;20347;-85
2023/08/22 06:44:33;;;;;;;9.63;7.17;;;;;;;31.51;47.76;99019.34;6969414;28;20315;-84
2023/08/22 06:47:56;;;;;;;10.80;7.33;;;;;;;31.11;47.86;99022.75;6969828;28;20290;-83
2023/08/22 06:51:18;;;;;;;7.80;6.97;;;;;;;32.04;45.21;99052.16;6969935;28;20318;-84
2023/08/22 06:54:39;;;;;;;8.07;6.70;;;;;;;32.02;44.71;98979.16;6975314;28;20228;-85
2023/08/22 06:58:01;;;;;;;7.83;7.03;;;;;;;31.99;45.69;99042.03;6972596;28;20353;-84
2023/08/22 07:01:23;;;;;;;9.70;7.07;;;;;;;32.17;45.61;99037.94;6993938;28;20303;-84
2023/08/22 07:04:46;;;;;;;7.20;6.50;;;;;;;31.30;46.48;98961.91;6969732;28;20220;-84
2023/08/22 07:08:08;;;;;;;8.50;6.97;;;;;;;32.13;46.49;99042.56;6968544;28;20199;-84
2023/08/22 07:11:29;;;;;;;9.07;7.27;;;;;;;32.37;45.35;99067.06;6970123;28;20227;-83
2023/08/22 07:14:51;;;;;;;10.87;7.30;;;;;;;32.26;45.54;99049.88;6969821;28;20419;-83
2023/08/22 07:18:13;;;;;;;8.40;6.90;;;;;;;32.27;45.58;99054.31;6969318;28;20211;-83
2023/08/22 07:21:36;;;;;;;7.43;6.83;;;;;;;30.84;46.99;98923.72;6970899;28;20205;-83
2023/08/22 07:24:58;;;;;;;7.97;7.17;;;;;;;31.89;45.78;99055.56;6970288;28;20604;-82
2023/08/22 07:28:19;;;;;;;7.33;6.73;;;;;;;32.49;45.30;99062.31;6969023;28;20681;-84
2023/08/22 07:31:41;;;;;;;9.67;7.27;;;;;;;32.98;43.88;99071.75;6968164;28;20745;-83
2023/08/22 07:35:02;;;;;;;12.57;7.57;;;;;;;33.75;40.37;99061.28;6971129;28;20245;-83
2023/08/22 07:38:25;;;;;;;10.50;7.23;;;;;;;34.34;41.79;99058.78;6974428;28;20338;-83
2023/08/22 07:41:47;;;;;;;7.13;6.43;;;;;;;33.48;41.18;99061.16;6971965;28;20738;-83
2023/08/22 07:45:10;;;;;;;7.00;6.40;;;;;;;33.43;41.77;99070.56;6947244;28;20207;-83
2023/08/22 07:48:32;;;;;;;9.57;6.80;;;;;;;33.34;41.04;98999.16;6966342;28;20228;-86
2023/08/22 07:51:54;;;;;;;11.70;7.20;;;;;;;34.28;40.16;99063.81;6975093;28;20291;-83
2023/08/22 07:55:18;;;;;;;13.97;6.40;;;;;;;34.24;40.12;99031.22;6975163;28;20328;-83
2023/08/22 07:58:44;;;;;;;10.40;6.80;;;;;;;32.69;42.11;99005.63;6975416;28;20209;-83
2023/08/22 08:02:06;;;;;;;6.87;6.17;;;;;;;33.50;42.29;99075.59;6975408;28;21627;-83
2023/08/22 08:05:28;;;;;;;8.23;5.93;;;;;;;34.37;39.94;99072.09;6975019;28;20646;-84
2023/08/22 08:08:49;;;;;;;8.83;6.93;;;;;;;33.95;40.71;99070.75;6974524;28;20199;-85
2023/08/22 08:12:12;;;;;;;7.67;6.47;;;;;;;33.79;40.68;99067.81;6974563;28;20267;-84
2023/08/22 08:15:34;;;;;;;8.87;6.80;;;;;;;33.84;40.40;99073.19;6974272;28;20234;-83
2023/08/22 08:18:55;;;;;;;7.40;5.80;;;;;;;34.12;40.51;99076.88;6974276;28;20218;-83
2023/08/22 08:22:17;;;;;;;8.90;7.73;;;;;;;33.09;41.08;98987.13;6975474;28;20257;-85
2023/08/22 08:25:39;;;;;;;9.33;6.50;;;;;;;34.96;38.50;99039.41;6975054;28;20236;-86
2023/08/22 08:29:01;;;;;;;8.33;6.60;;;;;;;34.57;39.56;99062.66;6973867;28;20256;-84
2023/08/22 08:32:23;;;;;;;7.20;6.30;;;;;;;35.91;37.71;99062.34;6974028;28;20350;-87
2023/08/22 08:35:44;;;;;;;8.57;6.57;;;;;;;35.57;36.98;99063.91;6973427;28;20297;-89
2023/08/22 08:39:15;;;;;;;8.90;6.50;;;;;;;34.97;38.42;99058.66;6973671;28;20234;-86
2023/08/22 08:42:39;;;;;;;10.50;6.53;;;;;;;35.34;38.10;99070.50;6973259;28;20244;-86
2023/08/22 08:46:02;;;;;;;8.63;6.23;;;;;;;35.58;37.11;99020.63;6974324;28;20650;-87
2023/08/22 08:49:25;;;;;;;8.57;6.07;;;;;;;36.21;36.39;99060.66;6973086;28;20762;-84
2023/08/22 08:52:46;;;;;;;9.50;6.23;;;;;;;36.32;36.82;99062.53;6972639;28;20236;-88
2023/08/22 08:56:10;;;;;;;9.13;5.83;;;;;;;36.21;36.22;98990.47;6973651;28;20210;-87
2023/08/22 08:59:31;;;;;;;7.53;5.10;;;;;;;36.56;34.83;99044.59;6973834;28;20206;-86
2023/08/22 09:02:54;;;;;;;6.07;5.33;;;;;;;36.81;34.95;99058.00;6973628;28;20254;-85
2023/08/22 09:06:16;;;;;;;7.77;5.30;;;;;;;37.34;33.31;99057.03;6974366;28;20305;-84
2023/08/22 09:09:38;;;;;;;6.57;4.87;;;;;;;37.84;32.63;99050.25;6972205;28;20297;-87
2023/08/22 09:13:03;;;;;;;7.03;5.60;;;;;;;37.21;33.87;99051.94;6972090;28;20226;-87
2023/08/22 09:16:25;;;;;;;6.23;5.67;;;;;;;36.92;34.99;99061.84;6971590;28;20221;-86
2023/08/22 09:19:48;;;;;;;10.70;6.17;;;;;;;37.01;34.79;99053.97;6972086;28;20207;-89
2023/08/22 09:23:20;;;;;;;5.63;5.10;;;;;;;35.89;34.92;99053.50;6971772;28;20592;-89
2023/08/22 09:26:47;;;;;;;7.93;5.20;;;;;;;35.62;35.51;98999.09;6971617;28;20198;-86
2023/08/22 09:30:10;;;;;;;5.10;4.60;;;;;;;36.35;34.76;99047.75;6971874;28;20194;-89
2023/08/22 09:33:44;;;;;;;6.37;4.70;;;;;;;37.40;32.61;99015.31;6972366;28;20229;-86
2023/08/22 09:37:07;;;;;;;7.53;4.70;;;;;;;37.95;32.14;99046.41;6945793;28;20274;-84
2023/08/22 09:40:29;;;;;;;6.20;5.10;;;;;;;37.65;32.75;99053.97;6945868;28;20199;-83
2023/08/22 09:43:53;;;;;;;7.43;4.97;;;;;;;38.62;31.20;99042.56;6945695;28;20239;-84
2023/08/22 09:47:15;;;;;;;6.37;4.80;;;;;;;38.01;32.11;99042.09;6948285;28;20301;-84
2023/08/22 09:50:39;;;;;;;7.40;4.63;;;;;;;38.84;30.67;99046.47;6956332;28;20352;-84
2023/08/22 09:54:03;;;;;;;8.13;5.23;;;;;;;38.52;30.94;99006.59;6991610;28;20303;-87
2023/08/22 09:57:27;;;;;;;6.70;4.53;;;;;;;38.07;31.69;99034.16;7002714;28;20685;-88
2023/08/22 10:00:52;;;;;;;5.53;4.70;;;;;;;37.32;32.73;99031.25;6998414;28;20293;-86
2023/08/22 10:04:14;;;;;;;5.53;4.63;;;;;;;36.50;33.77;99001.91;6999599;28;20213;-86
2023/08/22 10:07:36;;;;;;;7.73;4.63;;;;;;;37.26;32.50;98953.19;6998705;28;20202;-86
2023/08/22 10:10:59;;;;;;;4.47;4.03;;;;;;;36.63;32.11;98887.38;6994245;28;20238;-86
2023/08/22 10:14:23;;;;;;;7.17;4.20;;;;;;;37.48;32.51;99009.44;6971263;28;20732;-86
2023/08/22 10:17:45;;;;;;;5.77;4.33;;;;;;;37.77;31.54;98999.44;6970736;28;20217;-86
2023/08/22 10:21:17;;;;;;;3.80;3.50;;;;;;;38.27;30.77;98993.38;6967596;28;20265;-86
2023/08/22 10:24:40;;;;;;;5.43;4.13;;;;;;;38.73;30.02;98989.94;6970473;28;20233;-86
2023/08/22 10:28:06;;;;;;;7.70;4.50;;;;;;;38.66;30.41;99011.63;6969880;28;20230;-86
2023/08/22 10:31:28;;;;;;;6.67;4.17;;;;;;;38.98;30.15;99029.72;6970264;28;20691;-87
2023/08/22 10:35:27;;;;;;;4.80;4.30;;;;;;;38.69;30.24;99016.47;6970055;28;20223;-87
2023/08/22 10:38:53;;;;;;;7.07;4.00;;;;;;;36.98;31.83;98986.41;6970849;28;20195;-86
2023/08/22 10:42:17;;;;;;;6.53;4.13;;;;;;;37.88;30.83;98997.59;6970969;28;20225;-86
2023/08/22 10:45:42;;;;;;;5.30;4.10;;;;;;;38.50;30.35;99002.56;6969584;28;20240;-87
2023/08/22 10:49:04;;;;;;;4.37;3.30;;;;;;;38.46;29.06;99002.50;6970626;28;20193;-87
2023/08/22 10:52:27;;;;;;;5.00;3.70;;;;;;;38.06;30.33;99009.97;6970276;28;20331;-87
2023/08/22 10:56:18;;;;;;;5.17;3.90;;;;;;;38.57;29.95;99011.09;6968203;28;20215;-87
2023/08/22 10:59:56;;;;;;;3.90;3.50;;;;;;;39.58;29.10;99006.53;6948416;28;20242;-86
2023/08/22 11:03:20;;;;;;;5.97;3.67;;;;;;;39.17;29.44;99009.75;6970113;28;20277;-87
2023/08/22 11:06:42;;;;;;;4.50;3.63;;;;;;;38.61;29.56;99009.13;6970147;28;20206;-86
2023/08/22 11:10:04;;;;;;;5.53;3.40;;;;;;;38.12;29.24;98921.94;6972246;28;20347;-86
2023/08/22 11:13:40;;;;;;;3.90;3.40;;;;;;;38.26;29.59;99000.19;6978155;28;20238;-86
2023/08/22 11:17:03;;;;;;;3.27;3.03;;;;;;;38.29;29.11;98986.16;6978732;28;20189;-87
2023/08/22 11:20:26;;;;;;;4.07;3.33;;;;;;;38.85;28.55;98991.72;6979686;28;20210;-86
2023/08/22 11:23:47;;;;;;;3.60;3.20;;;;;;;39.26;27.91;98965.09;6978892;28;20733;-86
2023/08/22 11:27:09;;;;;;;3.43;3.07;;;;;;;39.04;28.15;98978.22;6979509;28;20364;-86
2023/08/22 11:30:39;;;;;;;4.03;3.27;;;;;;;38.42;28.78;98986.75;6964306;28;20685;-87
2023/08/22 11:34:03;;;;;;;4.63;3.23;;;;;;;36.63;30.92;98995.00;6952475;28;20286;-86
2023/08/22 11:37:26;;;;;;;4.93;3.20;;;;;;;37.66;29.97;98956.28;6952188;28;20660;-86
2023/08/22 11:40:48;;;;;;;3.40;3.10;;;;;;;39.02;27.60;98989.06;6952283;28;20210;-86
2023/08/22 11:44:13;;;;;;;3.17;2.87;;;;;;;38.43;27.95;98989.16;6967674;28;20283;-86
2023/08/22 11:47:45;;;;;;;3.30;3.00;;;;;;;38.42;28.32;98990.38;6970144;28;20214;-86
2023/08/22 11:51:06;;;;;;;3.40;3.10;;;;;;;37.49;29.64;98987.75;6958807;28;20362;-86
2023/08/22 11:54:29;;;;;;;6.60;3.43;;;;;;;38.39;29.90;98985.50;6978953;28;20317;-86
2023/08/22 11:57:51;;;;;;;4.77;3.57;;;;;;;38.16;29.90;98993.22;6978847;28;20201;-86
2023/08/22 12:01:13;;;;;;;3.73;3.30;;;;;;;36.83;31.71;98984.50;6979405;28;20212;-86
2023/08/22 12:04:44;;;;;;;6.43;3.50;;;;;;;38.00;30.32;98977.69;6979320;28;20229;-87
2023/08/22 12:08:19;;;;;;;5.50;3.20;;;;;;;37.42;30.69;98959.50;6978497;28;20213;-86
2023/08/22 12:11:44;;;;;;;5.00;3.60;;;;;;;37.33;31.00;98937.25;6982735;28;20233;-87
2023/08/22 12:15:13;;;;;;;4.53;3.00;;;;;;;36.84;29.25;98885.75;6973356;28;20230;-87
2023/08/22 12:18:34;;;;;;;5.20;2.97;;;;;;;38.12;28.67;98960.56;6957420;28;20309;-86
2023/08/22 12:21:57;;;;;;;3.97;2.90;;;;;;;38.50;28.30;98968.72;6977516;28;20217;-86
2023/08/22 12:25:19;;;;;;;3.40;3.10;;;;;;;38.46;28.31;98968.69;6974199;28;20217;-87
2023/08/22 12:28:42;;;;;;;3.27;2.97;;;;;;;38.86;27.74;98960.31;6973318;28;20208;-87
2023/08/22 12:32:04;;;;;;;3.97;3.40;;;;;;;39.03;27.84;98956.03;6960145;28;20238;-86
2023/08/22 12:35:25;;;;;;;5.00;2.87;;;;;;;36.80;29.70;98867.22;6946208;28;20206;-88
2023/08/22 12:38:47;;;;;;;4.13;3.43;;;;;;;36.19;30.22;98855.22;6946335;28;20206;-87
2023/08/22 12:42:08;;;;;;;3.53;3.30;;;;;;;36.91;30.59;98924.44;6987402;28;20227;-86
2023/08/22 12:45:31;;;;;;;4.47;3.30;;;;;;;37.74;29.42;98961.63;6977067;28;20284;-86
2023/08/22 12:48:53;;;;;;;3.60;3.30;;;;;;;37.89;29.02;98903.53;6973191;28;20198;-88
2023/08/22 12:52:14;;;;;;;3.50;3.20;;;;;;;38.52;28.78;98947.41;6974095;28;20238;-83
2023/08/22 12:55:40;;;;;;;4.77;3.23;;;;;;;38.00;29.44;98946.72;6973830;28;20290;-84
2023/08/22 12:59:02;;;;;;;5.87;3.50;;;;;;;38.03;29.53;98940.34;6974369;28;20207;-84
2023/08/22 13:02:25;;;;;;;4.60;3.50;;;;;;;37.83;29.60;98862.78;6976031;28;20231;-84
2023/08/22 13:05:46;;;;;;;3.37;3.00;;;;;;;38.25;29.08;98920.50;6974491;28;20237;-87
2023/08/22 13:09:10;;;;;;;3.50;3.20;;;;;;;37.80;28.75;98838.22;6972268;28;20285;-86
2023/08/22 13:12:31;;;;;;;5.57;3.60;;;;;;;37.87;29.88;98928.41;6972379;28;20325;-86
2023/08/22 13:15:53;;;;;;;3.47;2.93;;;;;;;38.69;28.60;98934.72;6972011;28;20371;-85
2023/08/22 13:19:16;;;;;;;6.00;3.17;;;;;;;38.89;27.92;98924.84;6972332;28;20645;-85
2023/08/22 13:22:37;;;;;;;5.03;3.20;;;;;;;38.25;29.22;98925.34;6971866;28;20249;-85
2023/08/22 13:25:59;;;;;;;3.73;3.30;;;;;;;37.89;29.50;98900.72;6971721;28;20257;-86
2023/08/22 13:29:20;;;;;;;6.47;3.30;;;;;;;37.99;29.72;98928.19;6971809;28;20275;-86
2023/08/22 13:32:42;;;;;;;4.93;3.40;;;;;;;37.51;29.73;98896.13;6968551;28;20234;-85
2023/08/22 13:36:05;;;;;;;4.73;3.20;;;;;;;37.28;29.70;98830.66;6968942;28;20313;-86
2023/08/22 13:39:27;;;;;;;3.60;3.30;;;;;;;36.93;30.72;98846.13;6972960;28;20209;-86
2023/08/22 13:42:48;;;;;;;4.67;3.40;;;;;;;37.39;30.13;98918.84;6971509;28;20238;-86
2023/08/22 13:46:10;;;;;;;4.57;3.10;;;;;;;37.73;30.66;98914.16;6972590;28;20197;-86
2023/08/22 13:49:32;;;;;;;3.47;3.17;;;;;;;37.19;30.82;98908.88;6998684;28;20205;-87
2023/08/22 13:52:55;;;;;;;4.27;3.23;;;;;;;36.96;31.37;98893.19;6998936;28;20269;-86
2023/08/22 13:56:16;;;;;;;4.67;3.20;;;;;;;36.74;31.83;98841.44;6998409;28;20218;-87
2023/08/22 13:59:38;;;;;;;4.37;3.67;;;;;;;38.12;30.07;98904.22;6998573;28;20240;-87
2023/08/22 14:03:00;;;;;;;3.97;3.60;;;;;;;38.19;30.06;98919.22;6975136;28;20235;-87
2023/08/22 14:06:22;;;;;;;4.67;3.13;;;;;;;36.93;31.49;98893.94;6987374;28;20194;-87
2023/08/22 14:09:45;;;;;;;4.83;3.07;;;;;;;36.62;31.68;98837.97;6970797;28;20229;-87
2023/08/22 14:13:06;;;;;;;3.83;3.33;;;;;;;37.59;30.51;98894.22;6943581;28;20325;-87
2023/08/22 14:16:28;;;;;;;4.03;3.40;;;;;;;36.71;31.73;98884.31;6942551;28;20273;-87
2023/08/22 14:19:50;;;;;;;3.87;3.47;;;;;;;36.83;32.50;98900.19;6962748;28;20234;-87
2023/08/22 14:23:11;;;;;;;3.53;3.23;;;;;;;37.28;31.12;98867.25;6969663;28;20295;-86
2023/08/22 14:26:34;;;;;;;4.13;3.47;;;;;;;37.67;31.13;98890.34;6977340;28;20242;-87
2023/08/22 14:29:56;;;;;;;3.63;3.23;;;;;;;37.65;31.63;98887.91;6997596;28;20243;-87
2023/08/22 14:33:19;;;;;;;6.40;3.70;;;;;;;37.33;31.17;98854.84;6997576;28;20271;-87
2023/08/22 14:36:41;;;;;;;4.13;3.60;;;;;;;37.51;30.81;98822.13;6997061;28;20203;-87
2023/08/22 14:40:04;;;;;;;4.63;3.27;;;;;;;37.86;30.65;98831.88;6976518;28;20214;-87
2023/08/22 14:43:27;;;;;;;5.50;3.60;;;;;;;37.95;31.00;98891.53;6970377;28;20386;-87
2023/08/22 14:46:49;;;;;;;3.83;3.43;;;;;;;37.64;30.16;98885.47;6969569;28;20217;-87
2023/08/22 14:50:11;;;;;;;5.37;3.73;;;;;;;37.69;30.59;98877.50;6970709;28;20206;-87
2023/08/22 14:53:35;;;;;;;5.73;3.60;;;;;;;37.13;30.83;98879.44;6971066;28;20235;-86
2023/08/22 14:56:57;;;;;;;4.53;3.10;;;;;;;36.98;31.56;98880.38;6970075;28;20722;-87
2023/08/22 15:00:27;;;;;;;4.10;3.10;;;;;;;36.91;32.15;98879.44;6970039;28;20285;-87
2023/08/22 15:03:48;;;;;;;4.07;3.60;;;;;;;37.01;31.40;98888.06;6970152;28;20360;-87
2023/08/22 15:07:10;;;;;;;4.60;3.30;;;;;;;36.63;32.66;98881.75;6969438;28;20207;-87
2023/08/22 15:10:32;;;;;;;6.60;3.37;;;;;;;35.73;33.55;98833.81;6970420;28;20750;-87
2023/08/22 15:13:54;;;;;;;5.87;3.20;;;;;;;35.74;32.80;98759.66;6969810;28;20242;-87
2023/08/22 15:17:17;;;;;;;3.33;3.03;;;;;;;36.63;31.90;98839.63;6977599;28;20674;-87
2023/08/22 15:20:38;;;;;;;4.83;3.43;;;;;;;36.33;33.03;98873.16;6971960;28;20210;-87
2023/08/22 15:24:00;;;;;;;3.53;3.17;;;;;;;36.26;31.74;98757.06;6969368;28;20767;-87
2023/08/22 15:27:24;;;;;;;3.73;3.30;;;;;;;37.25;31.60;98853.13;6968543;28;20205;-87
2023/08/22 15:30:45;;;;;;;6.00;3.17;;;;;;;37.60;31.81;98876.19;6969125;28;20253;-89
2023/08/22 15:34:08;;;;;;;4.93;3.10;;;;;;;37.46;31.98;98875.94;6969306;28;20676;-86
2023/08/22 15:37:30;;;;;;;3.47;3.17;;;;;;;37.28;31.56;98867.25;6969138;28;20624;-87
2023/08/22 15:40:52;;;;;;;3.30;3.00;;;;;;;37.31;32.01;98865.66;6969725;28;20261;-85
2023/08/22 15:44:13;;;;;;;6.07;3.50;;;;;;;37.08;31.65;98865.69;6969182;28;20253;-88
2023/08/22 15:47:35;;;;;;;3.97;3.47;;;;;;;36.43;32.27;98759.38;6983189;28;20204;-89
2023/08/22 15:50:58;;;;;;;4.43;3.63;;;;;;;37.41;31.97;98862.19;6980116;28;20648;-88
2023/08/22 15:54:29;;;;;;;4.47;3.00;;;;;;;37.24;31.87;98820.53;6957135;28;20234;-88
2023/08/22 15:57:52;;;;;;;5.33;3.00;;;;;;;36.91;32.10;98882.25;6941399;28;20214;-88
2023/08/22 16:01:14;;;;;;;3.67;3.10;;;;;;;36.76;32.43;98888.81;6946623;28;20211;-88
2023/08/22 16:04:36;;;;;;;5.57;3.20;;;;;;;36.55;31.69;98768.41;6946407;28;20223;-88
2023/08/22 16:07:59;;;;;;;4.33;3.50;;;;;;;36.53;31.71;98837.38;6967197;28;20199;-88
2023/08/22 16:11:21;;;;;;;4.27;3.40;;;;;;;36.81;31.89;98882.88;6974067;28;20202;-88